sensor_id;sensor_type;location;lat;lon;timestamp;P1;durP1;ratioP1;P2;durP2;ratioP2
83929;SDS011;73959;52.130;5.584;2024-03-22T00:01:44;67.95;;;35.20;;
83929;SDS011;73959;52.130;5.584;2024-03-22T00:04:10;58.50;;;33.25;;
83929;SDS011;73959;52.130;5.584;2024-03-22T00:06:36;59.35;;;33.83;;
83929;SDS011;73959;52.130;5.584;2024-03-22T00:09:02;56.58;;;31.77;;
83929;SDS011;73959;52.130;5.584;2024-03-22T00:11:28;64.63;;;34.28;;
83929;SDS011;73959;52.130;5.584;2024-03-22T00:13:54;60.90;;;32.85;;
83929;SDS011;73959;52.130;5.584;2024-03-22T00:16:20;59.15;;;33.08;;
83929;SDS011;73959;52.130;5.584;2024-03-22T00:18:46;60.03;;;34.92;;
83929;SDS011;73959;52.130;5.584;2024-03-22T00:21:12;64.20;;;33.58;;
83929;SDS011;73959;52.130;5.584;2024-03-22T00:23:38;62.38;;;33.85;;
83929;SDS011;73959;52.130;5.584;2024-03-22T00:26:04;60.17;;;31.98;;
83929;SDS011;73959;52.130;5.584;2024-03-22T00:28:30;62.30;;;33.47;;
83929;SDS011;73959;52.130;5.584;2024-03-22T00:30:56;62.72;;;33.45;;
83929;SDS011;73959;52.130;5.584;2024-03-22T00:33:22;57.20;;;31.38;;
83929;SDS011;73959;52.130;5.584;2024-03-22T00:35:48;61.72;;;33.72;;
83929;SDS011;73959;52.130;5.584;2024-03-22T00:38:13;64.90;;;34.90;;
83929;SDS011;73959;52.130;5.584;2024-03-22T00:40:39;64.10;;;35.28;;
83929;SDS011;73959;52.130;5.584;2024-03-22T00:43:06;65.40;;;32.35;;
83929;SDS011;73959;52.130;5.584;2024-03-22T00:45:32;64.22;;;34.53;;
83929;SDS011;73959;52.130;5.584;2024-03-22T00:47:58;60.03;;;32.50;;
83929;SDS011;73959;52.130;5.584;2024-03-22T00:50:24;65.68;;;35.45;;
83929;SDS011;73959;52.130;5.584;2024-03-22T00:52:50;65.40;;;34.15;;
83929;SDS011;73959;52.130;5.584;2024-03-22T00:55:17;65.10;;;35.38;;
83929;SDS011;73959;52.130;5.584;2024-03-22T00:57:43;68.68;;;35.80;;
83929;SDS011;73959;52.130;5.584;2024-03-22T01:00:09;66.85;;;35.92;;
83929;SDS011;73959;52.130;5.584;2024-03-22T01:02:35;70.10;;;35.75;;
83929;SDS011;73959;52.130;5.584;2024-03-22T01:05:01;65.30;;;34.85;;
83929;SDS011;73959;52.130;5.584;2024-03-22T01:07:27;67.68;;;36.63;;
83929;SDS011;73959;52.130;5.584;2024-03-22T01:09:53;71.55;;;36.53;;
83929;SDS011;73959;52.130;5.584;2024-03-22T01:12:19;67.32;;;35.97;;
83929;SDS011;73959;52.130;5.584;2024-03-22T01:14:45;70.20;;;37.38;;
83929;SDS011;73959;52.130;5.584;2024-03-22T01:17:11;73.22;;;37.60;;
83929;SDS011;73959;52.130;5.584;2024-03-22T01:19:37;67.82;;;35.97;;
83929;SDS011;73959;52.130;5.584;2024-03-22T01:22:03;73.65;;;37.40;;
83929;SDS011;73959;52.130;5.584;2024-03-22T01:24:29;67.82;;;36.30;;
83929;SDS011;73959;52.130;5.584;2024-03-22T01:26:54;72.20;;;37.42;;
83929;SDS011;73959;52.130;5.584;2024-03-22T01:29:20;76.18;;;37.30;;
83929;SDS011;73959;52.130;5.584;2024-03-22T01:31:47;74.95;;;37.45;;
83929;SDS011;73959;52.130;5.584;2024-03-22T01:34:13;72.75;;;37.42;;
83929;SDS011;73959;52.130;5.584;2024-03-22T01:36:39;68.68;;;36.65;;
83929;SDS011;73959;52.130;5.584;2024-03-22T01:39:05;73.80;;;38.50;;
83929;SDS011;73959;52.130;5.584;2024-03-22T01:41:31;78.18;;;39.03;;
83929;SDS011;73959;52.130;5.584;2024-03-22T01:43:58;77.00;;;38.88;;
83929;SDS011;73959;52.130;5.584;2024-03-22T01:46:24;78.47;;;38.53;;
83929;SDS011;73959;52.130;5.584;2024-03-22T01:48:50;77.25;;;39.30;;
83929;SDS011;73959;52.130;5.584;2024-03-22T01:51:17;61.92;;;35.05;;
83929;SDS011;73959;52.130;5.584;2024-03-22T01:53:43;78.97;;;39.30;;
83929;SDS011;73959;52.130;5.584;2024-03-22T01:56:09;67.47;;;36.92;;
83929;SDS011;73959;52.130;5.584;2024-03-22T01:58:36;73.25;;;38.97;;
83929;SDS011;73959;52.130;5.584;2024-03-22T02:01:02;73.40;;;38.65;;
83929;SDS011;73959;52.130;5.584;2024-03-22T02:03:28;80.43;;;40.50;;
83929;SDS011;73959;52.130;5.584;2024-03-22T02:05:54;77.93;;;39.47;;
83929;SDS011;73959;52.130;5.584;2024-03-22T02:08:20;73.72;;;39.72;;
83929;SDS011;73959;52.130;5.584;2024-03-22T02:10:46;79.25;;;39.17;;
83929;SDS011;73959;52.130;5.584;2024-03-22T02:13:12;71.20;;;37.92;;
83929;SDS011;73959;52.130;5.584;2024-03-22T02:15:38;74.35;;;40.03;;
83929;SDS011;73959;52.130;5.584;2024-03-22T02:18:04;73.55;;;39.72;;
83929;SDS011;73959;52.130;5.584;2024-03-22T02:20:30;79.80;;;40.53;;
83929;SDS011;73959;52.130;5.584;2024-03-22T02:22:56;74.85;;;40.10;;
83929;SDS011;73959;52.130;5.584;2024-03-22T02:25:22;73.50;;;38.40;;
83929;SDS011;73959;52.130;5.584;2024-03-22T02:27:48;80.78;;;40.53;;
83929;SDS011;73959;52.130;5.584;2024-03-22T02:30:15;74.47;;;39.83;;
83929;SDS011;73959;52.130;5.584;2024-03-22T02:32:41;72.22;;;39.95;;
83929;SDS011;73959;52.130;5.584;2024-03-22T02:35:07;78.55;;;40.03;;
83929;SDS011;73959;52.130;5.584;2024-03-22T02:37:34;83.38;;;41.45;;
83929;SDS011;73959;52.130;5.584;2024-03-22T02:40:00;76.97;;;40.78;;
83929;SDS011;73959;52.130;5.584;2024-03-22T02:42:25;77.20;;;41.10;;
83929;SDS011;73959;52.130;5.584;2024-03-22T02:44:52;80.18;;;41.03;;
83929;SDS011;73959;52.130;5.584;2024-03-22T02:47:18;75.18;;;40.22;;
83929;SDS011;73959;52.130;5.584;2024-03-22T02:49:44;79.85;;;40.95;;
83929;SDS011;73959;52.130;5.584;2024-03-22T02:52:10;70.63;;;38.38;;
83929;SDS011;73959;52.130;5.584;2024-03-22T02:54:36;69.78;;;38.95;;
83929;SDS011;73959;52.130;5.584;2024-03-22T02:57:02;72.95;;;37.95;;
83929;SDS011;73959;52.130;5.584;2024-03-22T02:59:28;72.32;;;39.63;;
83929;SDS011;73959;52.130;5.584;2024-03-22T03:01:54;75.45;;;40.40;;
83929;SDS011;73959;52.130;5.584;2024-03-22T03:04:20;69.90;;;39.00;;
83929;SDS011;73959;52.130;5.584;2024-03-22T03:06:46;64.93;;;36.17;;
83929;SDS011;73959;52.130;5.584;2024-03-22T03:09:12;68.63;;;37.95;;
83929;SDS011;73959;52.130;5.584;2024-03-22T03:11:41;67.50;;;37.70;;
83929;SDS011;73959;52.130;5.584;2024-03-22T03:14:07;65.03;;;35.63;;
83929;SDS011;73959;52.130;5.584;2024-03-22T03:16:33;62.65;;;34.45;;
83929;SDS011;73959;52.130;5.584;2024-03-22T03:18:59;66.50;;;35.10;;
83929;SDS011;73959;52.130;5.584;2024-03-22T03:21:25;67.63;;;34.70;;
83929;SDS011;73959;52.130;5.584;2024-03-22T03:23:51;62.38;;;33.50;;
83929;SDS011;73959;52.130;5.584;2024-03-22T03:26:17;61.35;;;34.70;;
83929;SDS011;73959;52.130;5.584;2024-03-22T03:28:43;57.50;;;33.22;;
83929;SDS011;73959;52.130;5.584;2024-03-22T03:31:09;67.45;;;34.92;;
83929;SDS011;73959;52.130;5.584;2024-03-22T03:33:35;59.97;;;33.95;;
83929;SDS011;73959;52.130;5.584;2024-03-22T03:36:01;65.35;;;34.03;;
83929;SDS011;73959;52.130;5.584;2024-03-22T03:38:27;61.80;;;33.60;;
83929;SDS011;73959;52.130;5.584;2024-03-22T03:40:53;63.05;;;34.08;;
83929;SDS011;73959;52.130;5.584;2024-03-22T03:43:19;64.65;;;34.45;;
83929;SDS011;73959;52.130;5.584;2024-03-22T03:45:45;66.80;;;35.42;;
83929;SDS011;73959;52.130;5.584;2024-03-22T03:48:11;65.97;;;35.20;;
83929;SDS011;73959;52.130;5.584;2024-03-22T03:50:36;67.35;;;34.97;;
83929;SDS011;73959;52.130;5.584;2024-03-22T03:53:02;66.38;;;35.95;;
83929;SDS011;73959;52.130;5.584;2024-03-22T03:55:28;69.45;;;36.08;;
83929;SDS011;73959;52.130;5.584;2024-03-22T03:57:54;69.40;;;35.97;;
83929;SDS011;73959;52.130;5.584;2024-03-22T04:00:20;70.22;;;36.42;;
83929;SDS011;73959;52.130;5.584;2024-03-22T04:02:48;71.82;;;37.13;;
83929;SDS011;73959;52.130;5.584;2024-03-22T04:05:15;75.78;;;37.35;;
83929;SDS011;73959;52.130;5.584;2024-03-22T04:07:41;75.60;;;36.83;;
83929;SDS011;73959;52.130;5.584;2024-03-22T04:10:07;71.53;;;35.28;;
83929;SDS011;73959;52.130;5.584;2024-03-22T04:12:33;73.93;;;36.75;;
83929;SDS011;73959;52.130;5.584;2024-03-22T04:15:00;74.97;;;34.95;;
83929;SDS011;73959;52.130;5.584;2024-03-22T04:17:26;63.90;;;32.33;;
83929;SDS011;73959;52.130;5.584;2024-03-22T04:19:52;73.10;;;35.78;;
83929;SDS011;73959;52.130;5.584;2024-03-22T04:22:17;72.22;;;36.60;;
83929;SDS011;73959;52.130;5.584;2024-03-22T04:24:44;78.70;;;38.33;;
83929;SDS011;73959;52.130;5.584;2024-03-22T04:27:10;77.05;;;35.92;;
83929;SDS011;73959;52.130;5.584;2024-03-22T04:29:35;78.40;;;37.25;;
83929;SDS011;73959;52.130;5.584;2024-03-22T04:32:01;79.43;;;38.28;;
83929;SDS011;73959;52.130;5.584;2024-03-22T04:34:27;78.85;;;38.75;;
83929;SDS011;73959;52.130;5.584;2024-03-22T04:36:53;76.20;;;38.38;;
83929;SDS011;73959;52.130;5.584;2024-03-22T04:39:20;82.80;;;38.13;;
83929;SDS011;73959;52.130;5.584;2024-03-22T04:41:46;79.55;;;37.53;;
83929;SDS011;73959;52.130;5.584;2024-03-22T04:44:12;78.05;;;39.88;;
83929;SDS011;73959;52.130;5.584;2024-03-22T04:46:37;80.70;;;39.30;;
83929;SDS011;73959;52.130;5.584;2024-03-22T04:49:03;80.55;;;39.55;;
83929;SDS011;73959;52.130;5.584;2024-03-22T04:51:29;79.30;;;39.47;;
83929;SDS011;73959;52.130;5.584;2024-03-22T04:53:55;85.05;;;38.95;;
83929;SDS011;73959;52.130;5.584;2024-03-22T04:56:21;78.53;;;40.10;;
83929;SDS011;73959;52.130;5.584;2024-03-22T04:58:47;79.82;;;39.15;;
83929;SDS011;73959;52.130;5.584;2024-03-22T05:01:13;77.00;;;38.72;;
83929;SDS011;73959;52.130;5.584;2024-03-22T05:03:39;75.43;;;38.40;;
83929;SDS011;73959;52.130;5.584;2024-03-22T05:06:06;73.93;;;38.95;;
83929;SDS011;73959;52.130;5.584;2024-03-22T05:08:32;73.78;;;38.28;;
83929;SDS011;73959;52.130;5.584;2024-03-22T05:10:58;79.15;;;39.28;;
83929;SDS011;73959;52.130;5.584;2024-03-22T05:13:24;78.32;;;39.85;;
83929;SDS011;73959;52.130;5.584;2024-03-22T05:15:50;74.57;;;38.60;;
83929;SDS011;73959;52.130;5.584;2024-03-22T05:18:16;70.25;;;37.13;;
83929;SDS011;73959;52.130;5.584;2024-03-22T05:20:42;77.10;;;38.28;;
83929;SDS011;73959;52.130;5.584;2024-03-22T05:23:08;76.38;;;39.35;;
83929;SDS011;73959;52.130;5.584;2024-03-22T05:25:34;75.55;;;38.92;;
83929;SDS011;73959;52.130;5.584;2024-03-22T05:28:00;74.80;;;38.35;;
83929;SDS011;73959;52.130;5.584;2024-03-22T05:30:26;73.85;;;39.38;;
83929;SDS011;73959;52.130;5.584;2024-03-22T05:32:52;79.28;;;38.22;;
83929;SDS011;73959;52.130;5.584;2024-03-22T05:35:18;70.38;;;37.60;;
83929;SDS011;73959;52.130;5.584;2024-03-22T05:37:44;72.00;;;39.60;;
83929;SDS011;73959;52.130;5.584;2024-03-22T05:40:10;71.78;;;38.95;;
83929;SDS011;73959;52.130;5.584;2024-03-22T05:42:36;70.25;;;38.78;;
83929;SDS011;73959;52.130;5.584;2024-03-22T05:45:02;74.63;;;38.03;;
83929;SDS011;73959;52.130;5.584;2024-03-22T05:47:28;75.22;;;38.85;;
83929;SDS011;73959;52.130;5.584;2024-03-22T05:49:56;75.20;;;38.33;;
83929;SDS011;73959;52.130;5.584;2024-03-22T05:52:22;72.68;;;37.63;;
83929;SDS011;73959;52.130;5.584;2024-03-22T05:54:48;74.47;;;38.83;;
83929;SDS011;73959;52.130;5.584;2024-03-22T05:57:14;70.45;;;37.40;;
83929;SDS011;73959;52.130;5.584;2024-03-22T05:59:40;71.30;;;37.90;;
83929;SDS011;73959;52.130;5.584;2024-03-22T06:02:06;68.50;;;36.05;;
83929;SDS011;73959;52.130;5.584;2024-03-22T06:04:32;69.82;;;36.42;;
83929;SDS011;73959;52.130;5.584;2024-03-22T06:06:58;66.65;;;33.80;;
83929;SDS011;73959;52.130;5.584;2024-03-22T06:09:25;61.63;;;34.28;;
83929;SDS011;73959;52.130;5.584;2024-03-22T06:12:11;71.03;;;34.53;;
83929;SDS011;73959;52.130;5.584;2024-03-22T06:14:37;64.38;;;35.80;;
83929;SDS011;73959;52.130;5.584;2024-03-22T06:17:03;70.90;;;36.97;;
83929;SDS011;73959;52.130;5.584;2024-03-22T06:19:29;68.53;;;37.45;;
83929;SDS011;73959;52.130;5.584;2024-03-22T06:21:55;69.90;;;36.10;;
83929;SDS011;73959;52.130;5.584;2024-03-22T06:24:21;70.72;;;36.17;;
83929;SDS011;73959;52.130;5.584;2024-03-22T06:26:47;65.68;;;35.08;;
83929;SDS011;73959;52.130;5.584;2024-03-22T06:29:14;62.33;;;33.65;;
83929;SDS011;73959;52.130;5.584;2024-03-22T06:31:41;69.57;;;35.63;;
83929;SDS011;73959;52.130;5.584;2024-03-22T06:34:07;66.03;;;34.40;;
83929;SDS011;73959;52.130;5.584;2024-03-22T06:36:33;62.70;;;33.75;;
83929;SDS011;73959;52.130;5.584;2024-03-22T06:38:59;62.65;;;33.08;;
83929;SDS011;73959;52.130;5.584;2024-03-22T06:41:25;58.90;;;32.25;;
83929;SDS011;73959;52.130;5.584;2024-03-22T06:43:52;66.40;;;32.67;;
83929;SDS011;73959;52.130;5.584;2024-03-22T06:46:17;63.03;;;32.63;;
83929;SDS011;73959;52.130;5.584;2024-03-22T06:48:44;59.60;;;31.95;;
83929;SDS011;73959;52.130;5.584;2024-03-22T06:51:10;60.28;;;31.88;;
83929;SDS011;73959;52.130;5.584;2024-03-22T06:53:36;54.38;;;29.73;;
83929;SDS011;73959;52.130;5.584;2024-03-22T06:56:03;61.17;;;30.65;;
83929;SDS011;73959;52.130;5.584;2024-03-22T06:58:29;55.97;;;29.58;;
83929;SDS011;73959;52.130;5.584;2024-03-22T07:00:55;52.45;;;28.15;;
83929;SDS011;73959;52.130;5.584;2024-03-22T07:03:21;54.15;;;29.55;;
83929;SDS011;73959;52.130;5.584;2024-03-22T07:05:47;49.63;;;27.65;;
83929;SDS011;73959;52.130;5.584;2024-03-22T07:08:13;52.90;;;28.02;;
83929;SDS011;73959;52.130;5.584;2024-03-22T07:10:39;48.67;;;27.40;;
83929;SDS011;73959;52.130;5.584;2024-03-22T07:13:05;48.63;;;25.50;;
83929;SDS011;73959;52.130;5.584;2024-03-22T07:15:31;45.90;;;26.13;;
83929;SDS011;73959;52.130;5.584;2024-03-22T07:17:57;50.75;;;27.58;;
83929;SDS011;73959;52.130;5.584;2024-03-22T07:20:24;48.90;;;27.00;;
83929;SDS011;73959;52.130;5.584;2024-03-22T07:22:50;49.30;;;26.90;;
83929;SDS011;73959;52.130;5.584;2024-03-22T07:25:16;43.53;;;25.20;;
83929;SDS011;73959;52.130;5.584;2024-03-22T07:27:42;49.22;;;26.30;;
83929;SDS011;73959;52.130;5.584;2024-03-22T07:30:08;47.88;;;25.95;;
83929;SDS011;73959;52.130;5.584;2024-03-22T07:32:34;51.30;;;26.30;;
83929;SDS011;73959;52.130;5.584;2024-03-22T07:35:02;51.50;;;26.92;;
83929;SDS011;73959;52.130;5.584;2024-03-22T07:37:28;51.42;;;26.55;;
83929;SDS011;73959;52.130;5.584;2024-03-22T07:39:54;54.28;;;26.58;;
83929;SDS011;73959;52.130;5.584;2024-03-22T07:42:20;45.83;;;23.98;;
83929;SDS011;73959;52.130;5.584;2024-03-22T07:44:46;50.67;;;25.80;;
83929;SDS011;73959;52.130;5.584;2024-03-22T07:47:12;51.85;;;25.38;;
83929;SDS011;73959;52.130;5.584;2024-03-22T07:49:38;51.22;;;25.73;;
83929;SDS011;73959;52.130;5.584;2024-03-22T07:52:04;52.35;;;25.23;;
83929;SDS011;73959;52.130;5.584;2024-03-22T07:54:30;52.90;;;26.63;;
83929;SDS011;73959;52.130;5.584;2024-03-22T07:56:56;51.33;;;26.45;;
83929;SDS011;73959;52.130;5.584;2024-03-22T07:59:23;46.03;;;24.15;;
83929;SDS011;73959;52.130;5.584;2024-03-22T08:01:49;49.97;;;25.95;;
83929;SDS011;73959;52.130;5.584;2024-03-22T08:04:14;50.25;;;26.85;;
83929;SDS011;73959;52.130;5.584;2024-03-22T08:06:41;47.58;;;25.27;;
83929;SDS011;73959;52.130;5.584;2024-03-22T08:09:06;46.40;;;25.77;;
83929;SDS011;73959;52.130;5.584;2024-03-22T08:11:32;51.72;;;26.05;;
83929;SDS011;73959;52.130;5.584;2024-03-22T08:13:58;50.25;;;27.65;;
83929;SDS011;73959;52.130;5.584;2024-03-22T08:16:31;48.60;;;26.23;;
83929;SDS011;73959;52.130;5.584;2024-03-22T08:18:57;54.03;;;26.27;;
83929;SDS011;73959;52.130;5.584;2024-03-22T08:21:23;53.10;;;27.13;;
83929;SDS011;73959;52.130;5.584;2024-03-22T08:23:49;51.97;;;27.58;;
83929;SDS011;73959;52.130;5.584;2024-03-22T08:26:15;52.03;;;27.20;;
83929;SDS011;73959;52.130;5.584;2024-03-22T08:28:41;52.90;;;27.13;;
83929;SDS011;73959;52.130;5.584;2024-03-22T08:31:07;51.65;;;27.25;;
83929;SDS011;73959;52.130;5.584;2024-03-22T08:33:33;52.63;;;27.65;;
83929;SDS011;73959;52.130;5.584;2024-03-22T08:35:59;55.65;;;28.90;;
83929;SDS011;73959;52.130;5.584;2024-03-22T08:38:26;48.13;;;26.52;;
83929;SDS011;73959;52.130;5.584;2024-03-22T08:40:52;59.63;;;28.95;;
83929;SDS011;73959;52.130;5.584;2024-03-22T08:43:18;49.70;;;27.27;;
83929;SDS011;73959;52.130;5.584;2024-03-22T08:45:47;55.33;;;27.67;;
83929;SDS011;73959;52.130;5.584;2024-03-22T08:48:13;53.70;;;26.48;;
83929;SDS011;73959;52.130;5.584;2024-03-22T08:50:41;51.10;;;27.63;;
83929;SDS011;73959;52.130;5.584;2024-03-22T08:53:07;49.45;;;26.98;;
83929;SDS011;73959;52.130;5.584;2024-03-22T08:55:33;48.15;;;26.85;;
83929;SDS011;73959;52.130;5.584;2024-03-22T08:57:59;50.50;;;26.52;;
83929;SDS011;73959;52.130;5.584;2024-03-22T09:00:25;47.78;;;26.60;;
83929;SDS011;73959;52.130;5.584;2024-03-22T09:02:51;50.65;;;25.83;;
83929;SDS011;73959;52.130;5.584;2024-03-22T09:05:17;53.83;;;26.13;;
83929;SDS011;73959;52.130;5.584;2024-03-22T09:07:44;54.03;;;26.90;;
83929;SDS011;73959;52.130;5.584;2024-03-22T09:10:10;46.67;;;23.98;;
83929;SDS011;73959;52.130;5.584;2024-03-22T09:12:36;49.65;;;26.15;;
83929;SDS011;73959;52.130;5.584;2024-03-22T09:15:03;38.45;;;23.35;;
83929;SDS011;73959;52.130;5.584;2024-03-22T09:17:29;42.53;;;21.48;;
83929;SDS011;73959;52.130;5.584;2024-03-22T09:19:55;41.05;;;23.13;;
83929;SDS011;73959;52.130;5.584;2024-03-22T09:22:21;40.20;;;20.70;;
83929;SDS011;73959;52.130;5.584;2024-03-22T09:24:47;36.30;;;19.85;;
83929;SDS011;73959;52.130;5.584;2024-03-22T09:27:13;40.72;;;21.05;;
83929;SDS011;73959;52.130;5.584;2024-03-22T09:29:39;40.75;;;22.48;;
83929;SDS011;73959;52.130;5.584;2024-03-22T09:32:05;41.55;;;21.60;;
83929;SDS011;73959;52.130;5.584;2024-03-22T09:34:31;38.40;;;21.55;;
83929;SDS011;73959;52.130;5.584;2024-03-22T09:36:57;43.53;;;21.80;;
83929;SDS011;73959;52.130;5.584;2024-03-22T09:39:23;43.03;;;22.33;;
83929;SDS011;73959;52.130;5.584;2024-03-22T09:41:50;40.20;;;21.77;;
83929;SDS011;73959;52.130;5.584;2024-03-22T09:44:17;39.30;;;21.60;;
83929;SDS011;73959;52.130;5.584;2024-03-22T09:46:44;41.10;;;22.30;;
83929;SDS011;73959;52.130;5.584;2024-03-22T09:49:10;43.47;;;21.98;;
83929;SDS011;73959;52.130;5.584;2024-03-22T09:51:37;43.80;;;21.25;;
83929;SDS011;73959;52.130;5.584;2024-03-22T09:54:03;41.65;;;21.70;;
83929;SDS011;73959;52.130;5.584;2024-03-22T09:56:30;41.97;;;21.33;;
83929;SDS011;73959;52.130;5.584;2024-03-22T09:58:56;39.55;;;20.83;;
83929;SDS011;73959;52.130;5.584;2024-03-22T10:01:23;35.35;;;19.77;;
83929;SDS011;73959;52.130;5.584;2024-03-22T10:03:49;32.58;;;18.67;;
83929;SDS011;73959;52.130;5.584;2024-03-22T10:06:16;40.38;;;18.90;;
83929;SDS011;73959;52.130;5.584;2024-03-22T10:08:43;29.85;;;18.13;;
83929;SDS011;73959;52.130;5.584;2024-03-22T10:11:10;36.15;;;18.90;;
83929;SDS011;73959;52.130;5.584;2024-03-22T10:13:36;30.25;;;17.73;;
83929;SDS011;73959;52.130;5.584;2024-03-22T10:16:02;34.78;;;18.10;;
83929;SDS011;73959;52.130;5.584;2024-03-22T10:18:27;27.83;;;17.05;;
83929;SDS011;73959;52.130;5.584;2024-03-22T10:21:00;29.25;;;16.17;;
83929;SDS011;73959;52.130;5.584;2024-03-22T10:23:27;29.55;;;15.77;;
83929;SDS011;73959;52.130;5.584;2024-03-22T10:25:53;26.95;;;17.00;;
83929;SDS011;73959;52.130;5.584;2024-03-22T10:28:19;28.02;;;16.15;;
83929;SDS011;73959;52.130;5.584;2024-03-22T10:30:45;31.27;;;16.35;;
83929;SDS011;73959;52.130;5.584;2024-03-22T10:33:13;31.52;;;16.40;;
83929;SDS011;73959;52.130;5.584;2024-03-22T10:35:39;27.83;;;16.60;;
83929;SDS011;73959;52.130;5.584;2024-03-22T10:38:05;22.92;;;14.52;;
83929;SDS011;73959;52.130;5.584;2024-03-22T10:40:32;23.42;;;14.23;;
83929;SDS011;73959;52.130;5.584;2024-03-22T10:42:58;30.88;;;14.18;;
83929;SDS011;73959;52.130;5.584;2024-03-22T10:45:25;24.65;;;13.80;;
83929;SDS011;73959;52.130;5.584;2024-03-22T10:47:52;25.27;;;15.30;;
83929;SDS011;73959;52.130;5.584;2024-03-22T10:50:20;25.13;;;14.35;;
83929;SDS011;73959;52.130;5.584;2024-03-22T10:52:52;21.63;;;13.60;;
83929;SDS011;73959;52.130;5.584;2024-03-22T10:55:21;32.17;;;15.90;;
83929;SDS011;73959;52.130;5.584;2024-03-22T10:57:48;23.73;;;14.43;;
83929;SDS011;73959;52.130;5.584;2024-03-22T11:00:14;23.92;;;14.70;;
83929;SDS011;73959;52.130;5.584;2024-03-22T11:02:43;23.52;;;14.82;;
83929;SDS011;73959;52.130;5.584;2024-03-22T11:05:18;21.75;;;13.73;;
83929;SDS011;73959;52.130;5.584;2024-03-22T11:07:44;21.30;;;14.10;;
83929;SDS011;73959;52.130;5.584;2024-03-22T11:10:13;25.10;;;14.23;;
83929;SDS011;73959;52.130;5.584;2024-03-22T11:12:40;20.52;;;13.18;;
83929;SDS011;73959;52.130;5.584;2024-03-22T11:15:06;24.50;;;13.68;;
83929;SDS011;73959;52.130;5.584;2024-03-22T11:17:33;21.23;;;14.43;;
83929;SDS011;73959;52.130;5.584;2024-03-22T11:19:59;19.15;;;13.57;;
83929;SDS011;73959;52.130;5.584;2024-03-22T11:22:25;27.25;;;15.80;;
83929;SDS011;73959;52.130;5.584;2024-03-22T11:24:52;19.17;;;13.45;;
83929;SDS011;73959;52.130;5.584;2024-03-22T11:27:18;20.65;;;13.35;;
83929;SDS011;73959;52.130;5.584;2024-03-22T11:29:44;22.13;;;14.70;;
83929;SDS011;73959;52.130;5.584;2024-03-22T11:32:11;17.60;;;12.95;;
83929;SDS011;73959;52.130;5.584;2024-03-22T11:34:38;17.75;;;12.65;;
83929;SDS011;73959;52.130;5.584;2024-03-22T11:37:06;19.35;;;13.85;;
83929;SDS011;73959;52.130;5.584;2024-03-22T11:39:35;19.63;;;12.55;;
83929;SDS011;73959;52.130;5.584;2024-03-22T11:42:02;16.10;;;11.50;;
83929;SDS011;73959;52.130;5.584;2024-03-22T11:44:29;15.20;;;11.32;;
83929;SDS011;73959;52.130;5.584;2024-03-22T11:46:55;17.70;;;11.95;;
83929;SDS011;73959;52.130;5.584;2024-03-22T11:49:21;15.25;;;11.02;;
83929;SDS011;73959;52.130;5.584;2024-03-22T11:51:47;14.82;;;10.32;;
83929;SDS011;73959;52.130;5.584;2024-03-22T11:54:13;15.52;;;11.05;;
83929;SDS011;73959;52.130;5.584;2024-03-22T11:56:39;15.25;;;10.85;;
83929;SDS011;73959;52.130;5.584;2024-03-22T11:59:06;12.82;;;9.32;;
83929;SDS011;73959;52.130;5.584;2024-03-22T12:01:32;15.15;;;10.13;;
83929;SDS011;73959;52.130;5.584;2024-03-22T12:03:58;17.58;;;10.57;;
83929;SDS011;73959;52.130;5.584;2024-03-22T12:06:24;15.43;;;8.95;;
83929;SDS011;73959;52.130;5.584;2024-03-22T12:08:50;12.45;;;9.00;;
83929;SDS011;73959;52.130;5.584;2024-03-22T12:11:17;14.25;;;8.88;;
83929;SDS011;73959;52.130;5.584;2024-03-22T12:13:43;10.93;;;8.77;;
83929;SDS011;73959;52.130;5.584;2024-03-22T12:16:09;12.90;;;9.32;;
83929;SDS011;73959;52.130;5.584;2024-03-22T12:18:35;12.25;;;9.13;;
83929;SDS011;73959;52.130;5.584;2024-03-22T12:21:01;9.15;;;7.07;;
83929;SDS011;73959;52.130;5.584;2024-03-22T12:23:27;9.35;;;7.25;;
83929;SDS011;73959;52.130;5.584;2024-03-22T12:25:53;7.07;;;6.25;;
83929;SDS011;73959;52.130;5.584;2024-03-22T12:28:20;8.57;;;6.32;;
83929;SDS011;73959;52.130;5.584;2024-03-22T12:30:47;7.93;;;6.38;;
83929;SDS011;73959;52.130;5.584;2024-03-22T12:33:14;9.73;;;6.38;;
83929;SDS011;73959;52.130;5.584;2024-03-22T12:35:40;9.98;;;6.72;;
83929;SDS011;73959;52.130;5.584;2024-03-22T12:38:06;11.30;;;6.82;;
83929;SDS011;73959;52.130;5.584;2024-03-22T12:40:35;10.20;;;6.70;;
83929;SDS011;73959;52.130;5.584;2024-03-22T12:43:01;7.97;;;5.95;;
83929;SDS011;73959;52.130;5.584;2024-03-22T12:45:28;8.20;;;6.20;;
83929;SDS011;73959;52.130;5.584;2024-03-22T12:47:54;8.05;;;6.07;;
83929;SDS011;73959;52.130;5.584;2024-03-22T12:50:20;9.80;;;6.60;;
83929;SDS011;73959;52.130;5.584;2024-03-22T12:52:46;8.20;;;5.68;;
83929;SDS011;73959;52.130;5.584;2024-03-22T12:55:12;8.18;;;6.40;;
83929;SDS011;73959;52.130;5.584;2024-03-22T12:57:38;10.27;;;7.40;;
83929;SDS011;73959;52.130;5.584;2024-03-22T13:00:05;9.85;;;7.00;;
83929;SDS011;73959;52.130;5.584;2024-03-22T13:02:38;11.25;;;7.30;;
83929;SDS011;73959;52.130;5.584;2024-03-22T13:05:04;13.18;;;8.60;;
83929;SDS011;73959;52.130;5.584;2024-03-22T13:07:30;13.20;;;8.25;;
83929;SDS011;73959;52.130;5.584;2024-03-22T13:09:57;15.30;;;9.43;;
83929;SDS011;73959;52.130;5.584;2024-03-22T13:12:25;16.27;;;9.15;;
83929;SDS011;73959;52.130;5.584;2024-03-22T13:14:51;13.18;;;9.23;;
83929;SDS011;73959;52.130;5.584;2024-03-22T13:17:17;20.45;;;11.40;;
83929;SDS011;73959;52.130;5.584;2024-03-22T13:19:43;19.83;;;11.20;;
83929;SDS011;73959;52.130;5.584;2024-03-22T13:22:09;18.08;;;11.55;;
83929;SDS011;73959;52.130;5.584;2024-03-22T13:24:35;20.70;;;11.25;;
83929;SDS011;73959;52.130;5.584;2024-03-22T13:27:01;19.70;;;10.73;;
83929;SDS011;73959;52.130;5.584;2024-03-22T13:29:27;16.30;;;10.27;;
83929;SDS011;73959;52.130;5.584;2024-03-22T13:31:53;15.90;;;10.90;;
83929;SDS011;73959;52.130;5.584;2024-03-22T13:34:20;17.77;;;11.00;;
83929;SDS011;73959;52.130;5.584;2024-03-22T13:36:46;16.23;;;10.48;;
83929;SDS011;73959;52.130;5.584;2024-03-22T13:39:12;16.35;;;9.88;;
83929;SDS011;73959;52.130;5.584;2024-03-22T13:41:40;25.45;;;15.65;;
83929;SDS011;73959;52.130;5.584;2024-03-22T13:44:06;21.30;;;11.93;;
83929;SDS011;73959;52.130;5.584;2024-03-22T13:46:33;21.70;;;11.32;;
83929;SDS011;73959;52.130;5.584;2024-03-22T13:49:01;12.90;;;9.10;;
83929;SDS011;73959;52.130;5.584;2024-03-22T13:51:27;13.15;;;9.70;;
83929;SDS011;73959;52.130;5.584;2024-03-22T13:53:54;17.52;;;10.65;;
83929;SDS011;73959;52.130;5.584;2024-03-22T13:56:20;18.33;;;9.70;;
83929;SDS011;73959;52.130;5.584;2024-03-22T13:58:46;16.60;;;9.82;;
83929;SDS011;73959;52.130;5.584;2024-03-22T14:01:14;16.67;;;9.30;;
83929;SDS011;73959;52.130;5.584;2024-03-22T14:03:40;19.85;;;10.43;;
83929;SDS011;73959;52.130;5.584;2024-03-22T14:06:06;17.98;;;11.23;;
83929;SDS011;73959;52.130;5.584;2024-03-22T14:08:32;15.43;;;9.50;;
83929;SDS011;73959;52.130;5.584;2024-03-22T14:10:58;18.55;;;10.00;;
83929;SDS011;73959;52.130;5.584;2024-03-22T14:13:24;19.73;;;9.95;;
83929;SDS011;73959;52.130;5.584;2024-03-22T14:15:50;18.73;;;10.57;;
83929;SDS011;73959;52.130;5.584;2024-03-22T14:18:16;18.55;;;9.95;;